Time;durP1;ratioP1;P1;durP2;ratioP2;P2;SDS_P1;SDS_P2;PMS_P1;PMS_P2;Temp;Humidity;BMP_temperature;BMP_pressure;BME280_temperature;BME280_humidity;BME280_pressure;Samples;Min_cycle;Max_cycle;Signal;HPM_P1;HPM_P2
2021/05/29 00:02:06;;;;;;;2.47;2.00;;;;;;;9.46;100.00;99734.59;10458206;28;20654;-74
2021/05/29 00:07:25;;;;;;;2.13;1.23;;;;;;;9.36;100.00;99729.78;10456851;28;20175;-75
2021/05/29 00:12:43;;;;;;;6.33;1.40;;;;;;;9.36;100.00;99735.28;10456741;28;20179;-76
2021/05/29 00:18:02;;;;;;;2.17;1.20;;;;;;;9.32;100.00;99737.19;10456601;28;20242;-76
2021/05/29 00:23:22;;;;;;;1.80;1.13;;;;;;;9.20;100.00;99733.91;10455481;28;20653;-76
2021/05/29 00:28:41;;;;;;;1.20;1.10;;;;;;;9.06;100.00;99740.00;10456996;28;20250;-74
2021/05/29 00:34:00;;;;;;;2.30;1.57;;;;;;;9.03;100.00;99738.00;10456870;28;20188;-75
2021/05/29 00:39:19;;;;;;;1.07;0.97;;;;;;;9.13;100.00;99737.34;10455258;28;20171;-74
2021/05/29 00:44:52;;;;;;;1.50;1.23;;;;;;;9.14;100.00;99730.69;10456176;28;20761;-74
2021/05/29 00:50:14;;;;;;;1.97;1.77;;;;;;;8.86;100.00;99737.75;10455267;28;20172;-74
2021/05/29 00:55:33;;;;;;;1.70;1.60;;;;;;;8.71;100.00;99735.22;10455598;28;20184;-74
2021/05/29 01:00:53;;;;;;;1.63;0.80;;;;;;;8.58;100.00;99734.66;10455225;28;20633;-73
2021/05/29 01:06:12;;;;;;;1.30;1.20;;;;;;;8.40;100.00;99733.59;10454320;28;20600;-75
2021/05/29 01:11:31;;;;;;;1.20;0.97;;;;;;;8.49;100.00;99749.78;10455943;28;20178;-74
2021/05/29 01:16:58;;;;;;;1.93;1.73;;;;;;;8.49;100.00;99738.81;10455920;28;20179;-74
2021/05/29 01:22:36;;;;;;;2.17;1.43;;;;;;;8.51;100.00;99739.22;10453405;28;20187;-73
2021/05/29 01:28:12;;;;;;;1.37;1.20;;;;;;;8.16;100.00;99727.72;10455405;28;20697;-73
2021/05/29 01:33:34;;;;;;;1.20;0.70;;;;;;;8.35;100.00;99736.66;10458958;28;20668;-75
2021/05/29 01:38:53;;;;;;;1.50;1.30;;;;;;;8.26;100.00;99746.28;10461725;28;20175;-75
2021/05/29 01:44:14;;;;;;;1.53;1.43;;;;;;;8.14;100.00;99739.03;10463330;28;20207;-75
2021/05/29 01:49:33;;;;;;;3.57;1.53;;;;;;;8.07;100.00;99738.91;10462094;28;20183;-75
2021/05/29 01:54:52;;;;;;;2.20;1.87;;;;;;;8.00;100.00;99738.00;10462221;28;20175;-75
2021/05/29 02:00:12;;;;;;;0.93;0.77;;;;;;;7.98;100.00;99727.41;10463102;28;20178;-76
2021/05/29 02:05:33;;;;;;;1.80;0.90;;;;;;;7.97;100.00;99730.53;10461008;28;20207;-76
2021/05/29 02:10:52;;;;;;;1.40;1.27;;;;;;;7.91;100.00;99732.78;10462781;28;20212;-74
2021/05/29 02:16:12;;;;;;;2.37;2.17;;;;;;;7.76;100.00;99730.16;10462360;28;20175;-76
2021/05/29 02:21:32;;;;;;;1.53;1.43;;;;;;;7.64;100.00;99719.38;10459886;28;20210;-75
2021/05/29 02:26:51;;;;;;;4.10;1.27;;;;;;;7.73;100.00;99730.91;10460727;28;20697;-75
2021/05/29 02:32:10;;;;;;;3.43;0.90;;;;;;;7.81;100.00;99729.88;10460716;28;20168;-77
2021/05/29 02:37:29;;;;;;;1.20;1.10;;;;;;;7.55;100.00;99727.03;10460167;28;20669;-77
2021/05/29 02:42:48;;;;;;;1.27;1.17;;;;;;;7.44;100.00;99731.53;10460869;28;20597;-75
2021/05/29 02:48:09;;;;;;;2.20;1.57;;;;;;;7.34;100.00;99725.84;10460207;28;20186;-77
2021/05/29 02:53:28;;;;;;;3.53;1.90;;;;;;;7.38;100.00;99734.94;10459624;28;20176;-76
2021/05/29 02:58:47;;;;;;;1.50;1.17;;;;;;;7.28;100.00;99733.56;10460977;28;20171;-74
2021/05/29 03:04:06;;;;;;;2.40;1.07;;;;;;;7.11;100.00;99728.53;10459252;28;20199;-74
2021/05/29 03:09:25;;;;;;;3.03;1.10;;;;;;;7.12;100.00;99726.59;10460370;28;20175;-75
2021/05/29 03:14:45;;;;;;;2.20;1.93;;;;;;;7.00;100.00;99742.38;10460122;28;20175;-77
2021/05/29 03:20:06;;;;;;;1.23;0.83;;;;;;;7.01;100.00;99730.28;10458713;28;20631;-75
2021/05/29 03:25:26;;;;;;;4.57;2.37;;;;;;;6.97;100.00;99730.22;10459245;28;20203;-73
2021/05/29 03:30:45;;;;;;;1.20;0.93;;;;;;;6.98;100.00;99740.00;10458978;28;20251;-73
2021/05/29 03:36:04;;;;;;;2.27;1.97;;;;;;;6.98;100.00;99739.19;10457900;28;20195;-74
2021/05/29 03:41:24;;;;;;;2.33;2.13;;;;;;;6.97;100.00;99751.28;10459131;28;20179;-75
2021/05/29 03:46:43;;;;;;;1.80;1.40;;;;;;;6.92;100.00;99755.09;10457980;28;20175;-73
2021/05/29 03:52:03;;;;;;;1.47;1.37;;;;;;;6.95;100.00;99768.06;10457262;28;20211;-74
2021/05/29 03:57:21;;;;;;;8.77;1.30;;;;;;;6.91;100.00;99777.34;10456843;28;20187;-73
2021/05/29 04:02:40;;;;;;;1.53;1.17;;;;;;;6.74;100.00;99788.69;10456973;28;20207;-75
2021/05/29 04:07:59;;;;;;;1.47;1.37;;;;;;;6.73;100.00;99784.34;10456834;28;20626;-74
2021/05/29 04:13:18;;;;;;;2.00;1.10;;;;;;;6.86;100.00;99783.88;10457800;28;20167;-73
2021/05/29 04:18:37;;;;;;;1.30;1.20;;;;;;;6.85;100.00;99781.50;10457795;28;20258;-74
2021/05/29 04:23:56;;;;;;;1.87;1.67;;;;;;;6.88;100.00;99781.59;10454989;28;20294;-74
2021/05/29 04:29:15;;;;;;;1.30;1.20;;;;;;;7.23;100.00;99774.91;10456972;28;20630;-73
2021/05/29 04:34:34;;;;;;;1.70;1.17;;;;;;;7.35;100.00;99780.22;10455809;28;20226;-75
2021/05/29 04:39:53;;;;;;;3.43;1.60;;;;;;;7.28;100.00;99791.03;10456879;28;20171;-74
2021/05/29 04:45:13;;;;;;;1.87;1.00;;;;;;;7.51;100.00;99786.41;10456406;28;20207;-74
2021/05/29 04:50:32;;;;;;;1.20;0.80;;;;;;;7.64;100.00;99798.78;10454263;28;20187;-75
2021/05/29 04:55:53;;;;;;;3.00;1.57;;;;;;;7.87;100.00;99787.88;10456351;28;20187;-74
2021/05/29 05:01:12;;;;;;;2.60;1.33;;;;;;;8.15;100.00;99792.72;10455182;28;20171;-74
2021/05/29 05:06:32;;;;;;;1.73;1.63;;;;;;;8.23;100.00;99797.16;10454199;28;20242;-74
2021/05/29 05:11:50;;;;;;;2.27;1.30;;;;;;;8.56;100.00;99794.56;10455989;28;20172;-75
2021/05/29 05:17:09;;;;;;;1.67;1.37;;;;;;;8.68;100.00;99799.03;10455957;28;20175;-74
2021/05/29 05:22:28;;;;;;;4.20;1.80;;;;;;;8.91;100.00;99806.84;10454414;28;20211;-74
2021/05/29 05:27:47;;;;;;;1.83;1.10;;;;;;;9.38;100.00;99798.81;10454445;28;20614;-75
2021/05/29 05:33:06;;;;;;;1.70;1.60;;;;;;;9.78;100.00;99807.94;10455560;28;20248;-76
2021/05/29 05:38:25;;;;;;;1.57;1.20;;;;;;;10.26;100.00;99811.59;10454196;28;20175;-75
2021/05/29 05:43:45;;;;;;;1.30;0.93;;;;;;;10.70;100.00;99797.41;10455129;28;20326;-74
2021/05/29 05:49:05;;;;;;;7.00;1.30;;;;;;;11.13;100.00;99802.78;10454231;28;20205;-74
2021/05/29 05:54:25;;;;;;;1.80;1.47;;;;;;;11.50;100.00;99813.59;10453705;28;20175;-75
2021/05/29 05:59:45;;;;;;;1.30;1.17;;;;;;;11.82;100.00;99820.84;10455212;28;20179;-75
2021/05/29 06:05:05;;;;;;;2.80;1.50;;;;;;;12.16;100.00;99816.56;10453245;28;20235;-74
2021/05/29 06:10:24;;;;;;;1.50;1.03;;;;;;;12.48;100.00;99807.13;10454823;28;20175;-75
2021/05/29 06:21:22;;;;;;;1.50;1.40;;;;;;;13.26;100.00;99812.19;10460144;28;20618;-74
2021/05/29 06:26:41;;;;;;;1.20;0.90;;;;;;;13.45;100.00;99816.47;10461217;28;20674;-76
2021/05/29 06:32:01;;;;;;;1.77;1.67;;;;;;;13.84;100.00;99826.16;10461714;28;20227;-75
2021/05/29 06:37:19;;;;;;;2.13;1.23;;;;;;;14.19;100.00;99829.56;10460326;28;20176;-75
2021/05/29 06:42:38;;;;;;;2.40;1.30;;;;;;;14.34;97.69;99824.72;10460338;28;20203;-74
2021/05/29 06:47:58;;;;;;;1.13;0.83;;;;;;;14.34;97.52;99826.25;10461117;28;20183;-74
2021/05/29 06:53:21;;;;;;;1.40;1.07;;;;;;;14.73;98.83;99828.75;10459616;28;20653;-74
2021/05/29 06:58:48;;;;;;;1.40;1.10;;;;;;;15.25;89.39;99831.84;10460220;28;20179;-73
2021/05/29 07:04:07;;;;;;;2.10;1.90;;;;;;;15.16;92.06;99828.72;10460229;28;20473;-75
2021/05/29 07:09:26;;;;;;;2.10;1.67;;;;;;;15.85;87.08;99843.00;10460248;28;20180;-75
2021/05/29 07:14:46;;;;;;;1.70;1.13;;;;;;;16.30;87.35;99838.84;10460087;28;20175;-76
2021/05/29 07:20:05;;;;;;;3.90;1.67;;;;;;;16.83;70.88;99834.78;10457890;28;20175;-75
2021/05/29 07:25:25;;;;;;;1.27;0.87;;;;;;;17.07;65.42;99836.34;10459339;28;20662;-75
2021/05/29 07:30:45;;;;;;;1.70;1.27;;;;;;;17.25;68.70;99834.03;10457889;28;20682;-75
2021/05/29 07:36:05;;;;;;;2.20;1.37;;;;;;;17.74;66.54;99841.47;10458166;28;20183;-74
2021/05/29 07:41:24;;;;;;;0.90;0.70;;;;;;;18.06;59.47;99842.34;10458134;28;20266;-75
2021/05/29 07:46:43;;;;;;;1.27;1.07;;;;;;;18.68;55.72;99836.56;10458359;28;20203;-75
2021/05/29 07:52:03;;;;;;;1.30;1.10;;;;;;;18.91;53.62;99839.94;10456270;28;20172;-76
2021/05/29 07:57:22;;;;;;;1.47;1.20;;;;;;;19.02;57.53;99843.25;10457465;28;20188;-77
2021/05/29 08:02:41;;;;;;;1.33;1.17;;;;;;;18.85;51.83;99836.13;10457058;28;20203;-75
2021/05/29 08:08:00;;;;;;;1.00;0.70;;;;;;;17.93;58.16;99840.66;10456634;28;20171;-76
2021/05/29 08:13:20;;;;;;;1.70;1.60;;;;;;;18.52;57.64;99836.56;10457918;28;20223;-76
2021/05/29 08:18:40;;;;;;;1.10;0.90;;;;;;;19.38;54.40;99838.34;10456688;28;20258;-77
2021/05/29 08:23:59;;;;;;;1.40;0.93;;;;;;;20.21;51.29;99840.75;10455015;28;20669;-77
2021/05/29 08:29:18;;;;;;;1.57;1.20;;;;;;;20.48;52.31;99839.06;10455922;28;20223;-78
2021/05/29 08:34:37;;;;;;;1.20;1.03;;;;;;;21.03;51.79;99832.88;10454759;28;20195;-79
2021/05/29 08:39:56;;;;;;;1.30;1.17;;;;;;;21.65;46.44;99829.88;10455762;28;20663;-79
2021/05/29 08:45:18;;;;;;;1.20;1.10;;;;;;;22.15;47.02;99827.56;10455394;28;20569;-80
2021/05/29 08:50:37;;;;;;;1.17;0.97;;;;;;;21.95;45.12;99832.75;10455224;28;20179;-80
2021/05/29 08:55:57;;;;;;;1.47;0.83;;;;;;;22.16;45.82;99842.38;10456471;28;20179;-77
2021/05/29 09:01:18;;;;;;;1.17;0.90;;;;;;;22.77;44.83;99837.53;10456244;28;20182;-79
2021/05/29 09:06:41;;;;;;;1.70;1.00;;;;;;;22.07;44.53;99837.47;10454257;28;20266;-77
2021/05/29 09:12:03;;;;;;;1.30;0.93;;;;;;;22.10;44.40;99835.78;10455895;28;20179;-76
2021/05/29 09:17:24;;;;;;;1.00;0.73;;;;;;;23.09;42.74;99831.41;10454796;28;20187;-77
2021/05/29 09:22:57;;;;;;;1.30;1.13;;;;;;;22.34;40.26;99836.88;10454490;28;20289;-79
2021/05/29 09:28:24;;;;;;;3.20;1.10;;;;;;;21.44;39.34;99839.03;10454300;28;20256;-76
2021/05/29 09:33:45;;;;;;;1.07;0.63;;;;;;;23.18;40.00;99837.81;10455509;28;20187;-77
2021/05/29 09:39:07;;;;;;;1.20;0.80;;;;;;;23.37;37.64;99830.97;10454349;28;20176;-76
2021/05/29 09:44:28;;;;;;;0.90;0.57;;;;;;;21.69;38.83;99834.13;10454872;28;20222;-77
2021/05/29 09:49:54;;;;;;;1.20;0.63;;;;;;;22.13;38.39;99829.28;10453047;28;20682;-75
2021/05/29 09:55:14;;;;;;;1.20;0.90;;;;;;;23.64;35.87;99814.91;10460434;28;20168;-76
2021/05/29 10:00:41;;;;;;;2.00;0.80;;;;;;;24.85;34.35;99820.81;10463078;28;20199;-77
2021/05/29 10:06:09;;;;;;;2.07;0.83;;;;;;;24.91;32.36;99816.06;10461243;28;20250;-79
2021/05/29 10:11:30;;;;;;;1.17;0.87;;;;;;;24.49;33.43;99816.16;10461736;28;20175;-79
2021/05/29 10:16:49;;;;;;;1.00;0.70;;;;;;;23.42;33.15;99814.25;10461542;28;20175;-79
2021/05/29 10:22:10;;;;;;;0.90;0.60;;;;;;;23.72;33.40;99810.50;10460907;28;20190;-78
2021/05/29 10:27:30;;;;;;;1.00;0.60;;;;;;;22.98;33.36;99814.97;10460978;28;20220;-77
2021/05/29 10:33:12;;;;;;;0.93;0.53;;;;;;;23.17;34.00;99805.34;10461832;28;20191;-79
2021/05/29 10:38:42;;;;;;;1.00;0.63;;;;;;;22.68;36.14;99809.44;10459568;28;20229;-77
2021/05/29 10:44:38;;;;;;;1.30;0.93;;;;;;;21.00;43.55;99811.41;10460149;28;20211;-79
2021/05/29 10:49:58;;;;;;;1.10;0.80;;;;;;;19.26;45.32;99813.97;10458971;28;20580;-79
2021/05/29 10:55:19;;;;;;;1.20;0.90;;;;;;;19.51;44.00;99811.28;10461105;28;20175;-79
2021/05/29 11:00:41;;;;;;;1.23;0.93;;;;;;;21.17;39.85;99796.00;10460844;28;20202;-77
2021/05/29 11:06:01;;;;;;;1.20;0.90;;;;;;;22.59;33.97;99786.97;10458594;28;20243;-78
2021/05/29 11:11:42;;;;;;;0.90;0.60;;;;;;;24.33;31.15;99793.19;10460327;28;20184;-81
2021/05/29 11:17:09;;;;;;;1.27;0.70;;;;;;;24.86;32.93;99785.78;10459024;28;20262;-75
2021/05/29 11:22:47;;;;;;;1.17;0.97;;;;;;;24.75;33.29;99786.31;10458720;28;20246;-76
2021/05/29 11:28:07;;;;;;;3.43;1.10;;;;;;;23.78;34.67;99779.78;10459536;28;20216;-78
2021/05/29 11:33:26;;;;;;;1.10;0.80;;;;;;;24.18;32.79;99784.66;10459065;28;20204;-76
2021/05/29 11:38:46;;;;;;;1.07;0.80;;;;;;;23.85;32.56;99780.22;10458121;28;20187;-78
2021/05/29 11:44:19;;;;;;;1.13;0.80;;;;;;;22.40;35.06;99779.75;10457775;28;20207;-76
2021/05/29 11:49:38;;;;;;;1.33;0.90;;;;;;;21.85;34.93;99780.69;10456439;28;20172;-77
2021/05/29 11:54:57;;;;;;;1.30;0.90;;;;;;;23.16;35.28;99777.75;10458708;28;20183;-76
2021/05/29 12:00:16;;;;;;;1.03;0.90;;;;;;;25.04;32.05;99764.66;10458455;28;20172;-75
2021/05/29 12:05:39;;;;;;;1.20;0.90;;;;;;;25.47;31.09;99774.53;10456414;28;20556;-76
2021/05/29 12:10:57;;;;;;;1.30;0.87;;;;;;;26.55;28.40;99762.88;10457778;28;20224;-76
2021/05/29 12:16:24;;;;;;;1.20;0.90;;;;;;;26.18;28.60;99761.75;10456694;28;20222;-76
2021/05/29 12:21:51;;;;;;;1.03;0.90;;;;;;;24.04;31.97;99762.06;10456452;28;20179;-75
2021/05/29 12:27:14;;;;;;;1.10;0.90;;;;;;;23.36;33.15;99762.78;10456970;28;20223;-75
2021/05/29 12:32:39;;;;;;;1.70;1.07;;;;;;;23.82;33.87;99757.91;10457036;28;20202;-75
2021/05/29 12:38:16;;;;;;;1.10;1.00;;;;;;;25.86;26.98;99748.63;10455743;28;20184;-78
2021/05/29 12:43:36;;;;;;;1.40;0.80;;;;;;;26.50;31.43;99744.59;10456519;28;20245;-77
2021/05/29 12:49:15;;;;;;;1.20;0.90;;;;;;;26.39;29.90;99752.13;10456646;28;20634;-78
2021/05/29 12:54:47;;;;;;;1.60;1.47;;;;;;;27.73;25.20;99752.84;10456520;28;20175;-79
2021/05/29 13:00:39;;;;;;;1.30;0.80;;;;;;;28.47;23.10;99749.69;10456482;28;20183;-76
2021/05/29 13:11:37;;;;;;;1.20;1.00;;;;;;;26.47;27.04;99756.09;10455236;28;20191;-78
2021/05/29 13:17:03;;;;;;;1.33;0.93;;;;;;;24.52;31.08;99766.56;10455953;28;20178;-77
2021/05/29 13:22:27;;;;;;;1.50;1.27;;;;;;;23.21;31.18;99768.69;10453652;28;20207;-75
2021/05/29 13:27:52;;;;;;;1.37;0.83;;;;;;;23.76;32.58;99749.31;10456687;28;20219;-78
2021/05/29 13:33:13;;;;;;;1.10;0.80;;;;;;;25.17;31.00;99753.97;10463156;28;20226;-75
2021/05/29 13:38:32;;;;;;;1.03;0.83;;;;;;;26.59;30.65;99755.75;10462699;28;20171;-78
2021/05/29 13:43:51;;;;;;;1.30;1.07;;;;;;;25.98;30.05;99748.34;10462725;28;20203;-75
2021/05/29 13:49:10;;;;;;;2.13;1.07;;;;;;;24.67;30.19;99758.97;10462251;28;20175;-78
2021/05/29 13:54:30;;;;;;;1.40;1.13;;;;;;;24.01;31.35;99765.03;10463445;28;20639;-76
2021/05/29 13:59:49;;;;;;;2.10;1.10;;;;;;;24.43;32.72;99764.56;10462222;28;20553;-77
2021/05/29 14:05:09;;;;;;;1.43;1.00;;;;;;;26.06;30.38;99757.19;10461437;28;20203;-77
2021/05/29 14:10:31;;;;;;;1.23;1.00;;;;;;;24.89;28.34;99763.06;10461832;28;20561;-77
2021/05/29 14:15:50;;;;;;;1.30;1.03;;;;;;;24.12;31.72;99771.72;10462291;28;20176;-78
2021/05/29 14:21:10;;;;;;;1.63;1.53;;;;;;;23.05;32.22;99772.63;10459297;28;20180;-76
2021/05/29 14:26:31;;;;;;;1.17;0.83;;;;;;;23.06;34.30;99767.75;10461389;28;20588;-75
2021/05/29 14:31:50;;;;;;;1.30;1.03;;;;;;;24.32;33.82;99763.50;10461909;28;20207;-75
2021/05/29 14:37:10;;;;;;;1.10;0.90;;;;;;;25.67;28.45;99750.06;10459311;28;20227;-75
2021/05/29 14:42:31;;;;;;;1.70;1.53;;;;;;;26.27;27.62;99750.34;10459658;28;20195;-75
2021/05/29 14:47:50;;;;;;;1.30;0.97;;;;;;;24.94;30.40;99756.00;10460854;28;20183;-74
2021/05/29 14:53:09;;;;;;;1.50;1.20;;;;;;;24.17;30.17;99773.88;10459315;28;20179;-76
2021/05/29 14:58:28;;;;;;;1.10;0.90;;;;;;;23.37;31.17;99763.56;10460784;28;20172;-76
2021/05/29 15:03:52;;;;;;;1.20;1.10;;;;;;;24.21;30.45;99769.66;10460269;28;20211;-77
2021/05/29 15:09:11;;;;;;;1.40;1.00;;;;;;;25.00;29.55;99777.38;10458224;28;20566;-75
2021/05/29 15:14:30;;;;;;;1.00;0.77;;;;;;;25.80;28.39;99766.75;10458993;28;20537;-77
2021/05/29 15:19:49;;;;;;;1.20;0.90;;;;;;;26.18;26.15;99764.56;10458596;28;20176;-74
2021/05/29 15:25:14;;;;;;;1.20;0.83;;;;;;;26.91;27.72;99758.25;10457998;28;20229;-76
2021/05/29 15:30:33;;;;;;;1.07;0.77;;;;;;;26.98;28.12;99757.06;10458484;28;20251;-76
2021/05/29 15:35:52;;;;;;;1.40;1.00;;;;;;;26.65;28.07;99751.72;10456767;28;20188;-75
2021/05/29 15:41:12;;;;;;;1.27;0.97;;;;;;;24.52;30.29;99750.47;10458997;28;20638;-76
2021/05/29 15:46:31;;;;;;;1.33;1.20;;;;;;;24.01;31.64;99754.56;10458238;28;20214;-75
2021/05/29 15:51:50;;;;;;;3.80;1.30;;;;;;;23.82;31.20;99757.91;10456451;28;20183;-76
2021/05/29 15:57:12;;;;;;;1.67;1.37;;;;;;;24.23;30.73;99749.50;10457942;28;20187;-74
2021/05/29 16:02:30;;;;;;;2.03;1.53;;;;;;;24.53;30.26;99749.22;10458412;28;20665;-75
2021/05/29 16:07:49;;;;;;;1.47;0.90;;;;;;;25.36;31.32;99746.91;10456033;28;20171;-75
2021/05/29 16:13:09;;;;;;;1.30;1.00;;;;;;;25.46;28.11;99748.38;10458011;28;20199;-75
2021/05/29 16:18:28;;;;;;;1.20;0.80;;;;;;;24.90;29.65;99750.56;10456930;28;20646;-75
2021/05/29 16:23:47;;;;;;;2.20;1.10;;;;;;;23.30;31.18;99751.88;10455270;28;20206;-79
2021/05/29 16:29:06;;;;;;;1.50;1.20;;;;;;;22.93;32.24;99750.28;10456990;28;20227;-75
2021/05/29 16:34:25;;;;;;;1.17;1.00;;;;;;;23.40;32.35;99751.38;10457250;28;20180;-78
2021/05/29 16:39:44;;;;;;;1.70;1.37;;;;;;;23.88;30.68;99747.56;10456082;28;20179;-76
2021/05/29 16:45:05;;;;;;;2.00;1.80;;;;;;;24.29;30.90;99747.59;10456534;28;20286;-78
2021/05/29 16:50:24;;;;;;;2.70;1.67;;;;;;;24.40;29.78;99747.84;10455487;28;20629;-77
2021/05/29 16:55:44;;;;;;;3.90;2.90;;;;;;;24.03;30.04;99745.69;10456480;28;20179;-77
2021/05/29 17:01:05;;;;;;;1.83;1.20;;;;;;;24.66;31.39;99754.59;10455950;28;20175;-80
2021/05/29 17:06:23;;;;;;;1.60;1.23;;;;;;;24.19;30.36;99754.50;10454503;28;20211;-76
2021/05/29 17:11:43;;;;;;;1.20;1.00;;;;;;;23.56;31.47;99751.84;10455072;28;20553;-79
2021/05/29 17:17:02;;;;;;;1.10;0.90;;;;;;;22.30;32.84;99761.31;10455978;28;20568;-77
2021/05/29 17:22:21;;;;;;;1.23;1.03;;;;;;;21.85;33.83;99763.09;10454680;28;20179;-74
2021/05/29 17:27:41;;;;;;;1.50;1.13;;;;;;;23.14;32.98;99764.16;10455324;28;20591;-75
2021/05/29 17:33:00;;;;;;;1.73;1.63;;;;;;;23.56;33.31;99762.28;10455884;28;20179;-75
2021/05/29 17:38:19;;;;;;;2.60;2.40;;;;;;;24.92;30.68;99753.66;10454312;28;20631;-77
2021/05/29 17:43:38;;;;;;;7.43;4.00;;;;;;;23.38;32.16;99757.47;10455368;28;20199;-75
2021/05/29 17:48:58;;;;;;;4.97;3.00;;;;;;;21.73;34.02;99775.94;10455323;28;20183;-76
2021/05/29 17:54:17;;;;;;;6.90;3.93;;;;;;;20.57;35.28;99774.09;10454209;28;20187;-76
2021/05/29 17:59:44;;;;;;;1.50;1.30;;;;;;;19.89;36.67;99775.84;10454223;28;20630;-75
2021/05/29 18:05:19;;;;;;;21.23;10.23;;;;;;;19.40;37.57;99780.06;10453877;28;20199;-79
2021/05/29 18:10:38;;;;;;;4.40;3.27;;;;;;;18.85;37.81;99785.94;10455004;28;20180;-76
2021/05/29 18:15:57;;;;;;;2.90;2.00;;;;;;;18.60;37.71;99787.78;10459321;28;20175;-73
2021/05/29 18:21:17;;;;;;;1.47;1.00;;;;;;;18.38;38.59;99792.28;10461281;28;20194;-73
2021/05/29 18:26:37;;;;;;;1.77;1.20;;;;;;;18.13;39.97;99797.66;10461129;28;20203;-73
2021/05/29 18:31:56;;;;;;;1.40;0.80;;;;;;;18.03;41.04;99806.22;10462143;28;20191;-76
2021/05/29 18:37:36;;;;;;;2.37;1.73;;;;;;;17.85;41.72;99806.63;10460459;28;20179;-75
2021/05/29 18:42:56;;;;;;;1.40;1.23;;;;;;;17.66;42.80;99814.97;10460354;28;20207;-77
2021/05/29 18:48:14;;;;;;;1.20;1.10;;;;;;;17.53;43.75;99819.59;10461452;28;20171;-74
2021/05/29 18:53:33;;;;;;;1.60;1.50;;;;;;;17.24;47.83;99824.13;10459818;28;20172;-74
2021/05/29 19:04:28;;;;;;;1.57;1.37;;;;;;;16.62;53.83;99842.69;10460359;28;20286;-75
2021/05/29 19:09:47;;;;;;;2.50;1.73;;;;;;;16.45;55.27;99845.75;10459692;28;20180;-75
2021/05/29 19:15:11;;;;;;;1.70;1.33;;;;;;;16.24;56.27;99851.56;10460464;28;20191;-75
2021/05/29 19:20:30;;;;;;;2.67;1.53;;;;;;;15.99;57.94;99865.03;10458769;28;20183;-75
2021/05/29 19:25:54;;;;;;;1.80;1.20;;;;;;;15.86;58.27;99869.53;10459648;28;20203;-75
2021/05/29 19:31:15;;;;;;;2.00;1.80;;;;;;;15.80;59.08;99871.22;10459081;28;20219;-77
2021/05/29 19:42:12;;;;;;;3.30;2.10;;;;;;;15.45;61.57;99879.94;10458937;28;20168;-76
2021/05/29 20:23:03;;;;;;;2.90;1.90;;;;;;;14.09;68.68;99924.44;10455975;28;20164;-77
2021/05/29 20:26:55;;;;;;;2.50;1.97;;;;;;;13.94;70.51;99920.16;10456706;28;20231;-76
2021/05/29 20:32:15;;;;;;;1.90;1.80;;;;;;;13.77;71.38;99926.53;10456423;28;20179;-75
2021/05/29 20:37:35;;;;;;;2.37;1.70;;;;;;;13.60;71.46;99921.84;10454401;28;20186;-74
2021/05/29 20:42:57;;;;;;;2.10;1.60;;;;;;;13.42;73.36;99923.09;10456333;28;20219;-77
2021/05/29 20:48:17;;;;;;;2.67;2.17;;;;;;;13.18;74.54;99934.16;10456947;28;20171;-74
2021/05/29 20:53:36;;;;;;;3.23;1.80;;;;;;;13.06;74.51;99935.34;10455570;28;20183;-75
2021/05/29 20:58:56;;;;;;;2.07;1.93;;;;;;;12.89;74.36;99944.41;10455426;28;20234;-75
2021/05/29 21:04:16;;;;;;;3.20;2.00;;;;;;;12.75;74.76;99949.13;10455060;28;20207;-75
2021/05/29 21:09:39;;;;;;;3.03;2.10;;;;;;;12.62;76.30;99952.66;10456040;28;20179;-73
2021/05/29 21:15:23;;;;;;;1.70;1.60;;;;;;;12.56;77.98;99960.53;10455946;28;20171;-75
2021/05/29 21:26:29;;;;;;;2.30;1.57;;;;;;;12.25;81.86;99968.69;10462670;28;20211;-75
2021/05/29 21:31:48;;;;;;;2.83;2.00;;;;;;;12.02;83.86;99963.50;10455609;28;20638;-75
2021/05/29 21:37:07;;;;;;;4.40;2.27;;;;;;;11.96;84.57;99965.03;10454313;28;20265;-74
2021/05/29 21:42:26;;;;;;;2.43;2.23;;;;;;;11.83;84.73;99973.25;10455241;28;20198;-74
2021/05/29 21:53:23;;;;;;;3.33;2.33;;;;;;;11.61;87.20;99979.81;10462320;28;20180;-75
2021/05/29 21:58:42;;;;;;;4.83;2.53;;;;;;;11.53;87.11;99986.47;10463191;28;20179;-73
2021/05/29 22:04:03;;;;;;;21.40;4.27;;;;;;;11.44;87.65;99988.72;10462894;28;20235;-76
2021/05/29 22:09:26;;;;;;;8.63;6.10;;;;;;;11.28;87.89;100001.97;10461572;28;20183;-76
2021/05/29 22:20:27;;;;;;;3.17;2.80;;;;;;;11.18;93.04;99999.94;10460638;28;20634;-76
2021/05/29 22:31:24;;;;;;;2.40;2.00;;;;;;;10.72;100.00;99995.97;10461463;28;20227;-74
2021/05/29 22:36:44;;;;;;;5.43;1.80;;;;;;;10.60;100.00;100001.72;10460477;28;20195;-75
2021/05/29 22:42:07;;;;;;;2.50;1.90;;;;;;;10.50;99.45;100007.91;10461739;28;20180;-75
2021/05/29 22:47:26;;;;;;;2.40;1.83;;;;;;;10.43;100.00;100004.28;10461577;28;20176;-75
2021/05/29 22:52:45;;;;;;;2.17;1.67;;;;;;;10.32;100.00;100012.44;10460077;28;20183;-74
2021/05/29 22:58:03;;;;;;;10.13;2.60;;;;;;;10.18;100.00;100014.22;10461144;28;20453;-73
2021/05/29 23:03:22;;;;;;;1.93;1.77;;;;;;;10.17;100.00;100022.84;10459387;28;20652;-75
2021/05/29 23:08:41;;;;;;;2.70;2.27;;;;;;;10.16;100.00;100015.75;10459395;28;20702;-74
2021/05/29 23:14:00;;;;;;;9.67;5.57;;;;;;;10.04;100.00;100026.97;10460243;28;20634;-74
2021/05/29 23:19:19;;;;;;;3.40;3.10;;;;;;;10.11;100.00;100021.56;10460277;28;20171;-75
2021/05/29 23:24:38;;;;;;;6.50;2.87;;;;;;;10.04;100.00;100025.03;10459684;28;20238;-74
2021/05/29 23:29:57;;;;;;;2.70;1.93;;;;;;;9.92;100.00;100027.97;10459415;28;20716;-73
2021/05/29 23:35:16;;;;;;;1.80;1.50;;;;;;;9.74;100.00;100028.88;10457329;28;20183;-73
2021/05/29 23:40:36;;;;;;;2.67;2.10;;;;;;;9.47;100.00;100030.03;10459657;28;20203;-74
2021/05/29 23:45:55;;;;;;;2.50;2.00;;;;;;;9.59;100.00;100024.34;10458694;28;20612;-75
2021/05/29 23:51:14;;;;;;;2.93;2.50;;;;;;;9.47;100.00;100026.50;10457911;28;20175;-74
2021/05/29 23:56:33;;;;;;;2.27;1.50;;;;;;;9.23;100.00;100035.16;10459010;28;20172;-74
